createdAt,value
2019-02-27T00:00:43.770Z,17.10
2019-02-27T00:01:40.098Z,17.20
2019-02-27T00:02:40.090Z,18.30
2019-02-27T00:03:40.096Z,17.60
2019-02-27T00:04:40.074Z,17.50
2019-02-27T00:05:41.819Z,19.40
2019-02-27T00:06:40.068Z,17.00
2019-02-27T00:07:40.031Z,17.50
2019-02-27T00:08:40.018Z,17.20
2019-02-27T00:09:40.040Z,16.30
2019-02-27T00:10:39.998Z,18.80
2019-02-27T00:11:40.001Z,19.60
2019-02-27T00:12:39.971Z,18.80
2019-02-27T00:13:39.964Z,20.00
2019-02-27T00:14:39.970Z,19.00
2019-02-27T00:15:39.940Z,20.60
2019-02-27T00:16:41.780Z,19.30
2019-02-27T00:17:39.927Z,20.40
2019-02-27T00:18:39.908Z,21.30
2019-02-27T00:19:39.924Z,22.30
2019-02-27T00:20:39.897Z,20.50
2019-02-27T00:21:40.888Z,19.80
2019-02-27T00:22:39.861Z,21.90
2019-02-27T00:23:39.853Z,21.00
2019-02-27T00:24:39.862Z,22.00
2019-02-27T00:25:39.833Z,20.80
2019-02-27T00:26:42.533Z,21.70
2019-02-27T00:27:39.803Z,22.50
2019-02-27T00:28:39.793Z,23.10
2019-02-27T00:29:39.781Z,21.50
2019-02-27T00:30:39.785Z,21.00
2019-02-27T00:31:39.782Z,24.20
2019-02-27T00:32:39.749Z,20.80
2019-02-27T00:33:39.756Z,22.00
2019-02-27T00:34:39.753Z,23.70
2019-02-27T00:35:39.728Z,20.90
2019-02-27T00:36:39.706Z,22.00
2019-02-27T00:37:39.692Z,21.30
2019-02-27T00:38:39.691Z,22.30
2019-02-27T00:39:39.669Z,22.10
2019-02-27T00:40:39.688Z,21.20
2019-02-27T00:41:39.682Z,19.70
2019-02-27T00:42:39.636Z,23.50
2019-02-27T00:43:39.633Z,18.40
2019-02-27T00:44:39.634Z,21.00
2019-02-27T00:45:40.091Z,19.80
2019-02-27T00:46:39.591Z,21.10
2019-02-27T00:47:39.586Z,21.90
2019-02-27T00:48:39.568Z,20.90
2019-02-27T00:49:39.560Z,25.60
2019-02-27T00:50:39.711Z,20.80
2019-02-27T00:51:39.534Z,23.10
2019-02-27T00:52:39.524Z,21.90
2019-02-27T00:53:39.516Z,21.50
2019-02-27T00:54:39.518Z,20.60
2019-02-27T00:55:39.582Z,22.40
2019-02-27T00:56:39.479Z,22.70
2019-02-27T00:57:39.491Z,22.10
2019-02-27T00:58:39.455Z,24.10
2019-02-27T00:59:39.447Z,23.10
2019-02-27T01:00:40.016Z,21.30
2019-02-27T01:01:39.425Z,23.00
2019-02-27T01:02:39.408Z,21.00
2019-02-27T01:03:39.400Z,21.90
2019-02-27T01:04:39.401Z,21.10
2019-02-27T01:05:41.131Z,20.50
2019-02-27T01:06:39.363Z,20.20
2019-02-27T01:07:39.364Z,22.20
2019-02-27T01:08:39.343Z,19.20
2019-02-27T01:09:39.554Z,22.10
2019-02-27T01:10:39.331Z,19.90
2019-02-27T01:11:39.317Z,21.70
2019-02-27T01:12:39.297Z,20.90
2019-02-27T01:13:39.289Z,21.80
2019-02-27T01:14:39.279Z,22.40
2019-02-27T01:15:41.757Z,20.30
2019-02-27T01:16:39.258Z,21.60
2019-02-27T01:17:39.263Z,18.60
2019-02-27T01:18:39.235Z,20.50
2019-02-27T01:19:39.381Z,17.50
2019-02-27T01:20:39.229Z,19.00
2019-02-27T01:21:39.203Z,20.10
2019-02-27T01:22:39.193Z,20.60
2019-02-27T01:23:43.888Z,20.10
2019-02-27T01:24:40.165Z,18.50
2019-02-27T01:25:39.182Z,20.80
2019-02-27T01:26:39.140Z,20.20
2019-02-27T01:27:39.155Z,19.00
2019-02-27T01:28:39.123Z,19.70
2019-02-27T01:29:39.123Z,20.10
2019-02-27T01:30:39.133Z,18.80
2019-02-27T01:31:39.087Z,23.10
2019-02-27T01:32:39.082Z,18.90
2019-02-27T01:33:39.097Z,19.10
2019-02-27T01:34:39.062Z,20.50
2019-02-27T01:35:39.317Z,20.20
2019-02-27T01:36:39.028Z,19.40
2019-02-27T01:37:39.028Z,19.20
2019-02-27T01:38:39.016Z,18.90
2019-02-27T01:39:38.995Z,19.50
2019-02-27T01:40:38.987Z,20.90
2019-02-27T01:41:38.991Z,19.90
2019-02-27T01:42:38.961Z,17.90
2019-02-27T01:43:40.046Z,19.50
2019-02-27T01:44:38.942Z,18.70
2019-02-27T01:45:38.928Z,18.80
2019-02-27T01:46:38.949Z,17.40
2019-02-27T01:47:38.902Z,18.10
2019-02-27T01:48:42.730Z,16.80
2019-02-27T01:49:38.883Z,18.90
2019-02-27T01:50:38.874Z,18.80
2019-02-27T01:51:38.885Z,20.50
2019-02-27T01:52:38.850Z,18.20
2019-02-27T01:53:40.476Z,17.80
2019-02-27T01:54:38.829Z,19.40
2019-02-27T01:55:38.811Z,18.00
2019-02-27T01:56:38.818Z,17.20
2019-02-27T01:57:38.796Z,18.50
2019-02-27T01:58:43.283Z,16.20
2019-02-27T01:59:39.781Z,18.40
2019-02-27T02:00:38.759Z,18.30
2019-02-27T02:01:38.755Z,17.20
2019-02-27T02:02:40.499Z,17.00
2019-02-27T02:03:38.784Z,16.80
2019-02-27T02:04:38.737Z,16.40
2019-02-27T02:05:38.700Z,17.90
2019-02-27T02:06:38.727Z,16.60
2019-02-27T02:07:40.286Z,17.60
2019-02-27T02:08:38.665Z,19.00
2019-02-27T02:09:38.656Z,16.80
2019-02-27T02:10:38.659Z,19.80
2019-02-27T02:11:38.628Z,17.90
2019-02-27T02:12:39.040Z,16.50
2019-02-27T02:13:38.609Z,19.10
2019-02-27T02:14:38.636Z,17.70
2019-02-27T02:15:38.602Z,17.10
2019-02-27T02:16:38.593Z,18.70
2019-02-27T02:17:41.006Z,15.80
2019-02-27T02:18:38.568Z,17.90
2019-02-27T02:19:38.545Z,16.60
2019-02-27T02:20:38.526Z,17.80
2019-02-27T02:21:38.519Z,18.80
2019-02-27T02:22:38.908Z,17.20
2019-02-27T02:23:38.511Z,17.50
2019-02-27T02:24:38.486Z,18.30
2019-02-27T02:25:38.469Z,17.70
2019-02-27T02:26:38.458Z,15.60
2019-02-27T02:27:39.142Z,17.60
2019-02-27T02:28:38.445Z,18.70
2019-02-27T02:29:38.445Z,18.40
2019-02-27T02:30:38.418Z,17.20
2019-02-27T02:31:41.633Z,21.70
2019-02-27T02:32:38.407Z,17.90
2019-02-27T02:33:38.383Z,16.40
2019-02-27T02:34:40.108Z,17.40
2019-02-27T02:35:38.365Z,14.70
2019-02-27T02:36:38.349Z,15.10
2019-02-27T02:37:38.357Z,17.10
2019-02-27T02:38:38.412Z,17.60
2019-02-27T02:39:38.318Z,17.30
2019-02-27T02:40:38.316Z,15.30
2019-02-27T02:41:38.304Z,18.30
2019-02-27T02:42:38.287Z,15.80
2019-02-27T02:43:41.530Z,17.50
2019-02-27T02:44:38.263Z,18.00
2019-02-27T02:45:38.242Z,15.50
2019-02-27T02:46:44.842Z,17.70
2019-02-27T02:47:39.239Z,16.90
2019-02-27T02:48:38.210Z,16.10
2019-02-27T02:49:42.065Z,19.80
2019-02-27T02:50:38.202Z,14.60
2019-02-27T02:51:38.189Z,18.00
2019-02-27T02:52:40.746Z,14.70
2019-02-27T02:53:38.153Z,14.80
2019-02-27T02:54:38.209Z,14.70
2019-02-27T02:55:38.144Z,13.50
2019-02-27T02:56:38.118Z,15.10
2019-02-27T02:57:38.141Z,14.40
2019-02-27T02:58:38.095Z,14.70
2019-02-27T02:59:38.086Z,14.20
2019-02-27T03:00:39.259Z,13.90
2019-02-27T03:01:38.064Z,13.90
2019-02-27T03:02:38.054Z,14.50
2019-02-27T03:03:38.056Z,13.40
2019-02-27T03:04:38.034Z,13.30
2019-02-27T03:05:38.063Z,13.50
2019-02-27T03:06:38.017Z,14.70
2019-02-27T03:07:37.999Z,14.00
2019-02-27T03:08:37.998Z,13.90
2019-02-27T03:09:37.998Z,13.00
2019-02-27T03:10:42.493Z,12.90
2019-02-27T03:11:38.960Z,13.50
2019-02-27T03:12:37.965Z,14.20
2019-02-27T03:13:41.548Z,13.40
2019-02-27T03:14:37.923Z,13.80
2019-02-27T03:15:37.904Z,13.00
2019-02-27T03:16:41.188Z,13.60
2019-02-27T03:17:37.890Z,15.60
2019-02-27T03:18:37.892Z,15.00
2019-02-27T03:19:41.280Z,13.70
2019-02-27T03:20:37.870Z,12.70
2019-02-27T03:21:37.837Z,13.50
2019-02-27T03:22:41.660Z,13.20
2019-02-27T03:23:37.843Z,13.30
2019-02-27T03:24:37.806Z,15.30
2019-02-27T03:25:40.684Z,15.80
2019-02-27T03:26:37.794Z,12.90
2019-02-27T03:27:37.776Z,13.70
2019-02-27T03:28:40.912Z,13.00
2019-02-27T03:29:37.766Z,14.20
2019-02-27T03:30:37.741Z,13.90
2019-02-27T03:31:37.737Z,14.80
2019-02-27T03:32:43.267Z,14.30
2019-02-27T03:33:38.711Z,14.00
2019-02-27T03:34:47.899Z,15.20
2019-02-27T03:35:38.684Z,14.40
2019-02-27T03:36:38.980Z,13.60
2019-02-27T03:37:37.662Z,15.40
2019-02-27T03:38:37.650Z,14.10
2019-02-27T03:39:37.652Z,13.10
2019-02-27T03:40:37.640Z,13.60
2019-02-27T03:41:37.614Z,15.00
2019-02-27T03:42:37.605Z,13.70
2019-02-27T03:43:37.608Z,15.30
2019-02-27T03:44:37.598Z,13.90
2019-02-27T03:45:37.575Z,14.20
2019-02-27T03:46:40.759Z,13.60
2019-02-27T03:47:37.550Z,15.80
2019-02-27T03:48:37.564Z,14.20
2019-02-27T03:49:40.743Z,14.60
2019-02-27T03:50:37.525Z,15.10
2019-02-27T03:51:37.538Z,15.80
2019-02-27T03:52:37.510Z,16.50
2019-02-27T03:53:37.494Z,18.20
2019-02-27T03:54:37.485Z,14.50
2019-02-27T03:55:37.469Z,14.70
2019-02-27T03:56:43.547Z,14.10
2019-02-27T03:57:38.434Z,14.90
2019-02-27T03:58:37.447Z,13.10
2019-02-27T03:59:42.154Z,12.90
2019-02-27T04:00:38.434Z,14.20
2019-02-27T04:01:37.404Z,14.80
2019-02-27T04:02:38.880Z,14.20
2019-02-27T04:03:37.377Z,15.50
2019-02-27T04:04:37.392Z,14.40
2019-02-27T04:05:41.209Z,15.20
2019-02-27T04:06:37.343Z,13.10
2019-02-27T04:07:37.334Z,14.30
2019-02-27T04:08:43.597Z,13.30
2019-02-27T04:09:38.315Z,13.30
2019-02-27T04:10:37.296Z,14.00
2019-02-27T04:11:41.419Z,14.50
2019-02-27T04:12:38.267Z,14.60
2019-02-27T04:13:37.275Z,14.60
2019-02-27T04:14:42.067Z,14.40
2019-02-27T04:15:37.245Z,14.40
2019-02-27T04:16:38.223Z,13.70
2019-02-27T04:17:37.216Z,16.40
2019-02-27T04:18:37.211Z,17.30
2019-02-27T04:19:39.306Z,13.70
2019-02-27T04:20:37.194Z,15.70
2019-02-27T04:21:37.166Z,16.30
2019-02-27T04:22:37.686Z,15.90
2019-02-27T04:23:37.146Z,17.20
2019-02-27T04:24:37.164Z,18.30
2019-02-27T04:25:37.134Z,16.60
2019-02-27T04:26:41.505Z,15.90
2019-02-27T04:27:38.106Z,15.50
2019-02-27T04:28:37.093Z,15.90
2019-02-27T04:29:40.795Z,17.30
2019-02-27T04:30:37.082Z,15.40
2019-02-27T04:31:37.054Z,14.60
2019-02-27T04:32:37.042Z,15.70
2019-02-27T04:33:37.035Z,16.00
2019-02-27T04:34:37.062Z,15.60
2019-02-27T04:35:39.157Z,17.40
2019-02-27T04:36:37.004Z,15.50
2019-02-27T04:37:36.988Z,15.90
2019-02-27T04:38:36.976Z,16.10
2019-02-27T04:39:38.281Z,14.40
2019-02-27T04:40:36.987Z,14.10
2019-02-27T04:41:36.945Z,14.80
2019-02-27T04:42:36.950Z,14.00
2019-02-27T04:43:36.928Z,15.20
2019-02-27T04:44:38.910Z,15.00
2019-02-27T04:45:36.915Z,15.10
2019-02-27T04:46:36.889Z,15.40
2019-02-27T04:47:36.873Z,15.30
2019-02-27T04:48:36.864Z,13.30
2019-02-27T04:49:37.822Z,14.00
2019-02-27T04:50:36.854Z,14.50
2019-02-27T04:51:36.858Z,13.60
2019-02-27T04:52:36.820Z,14.60
2019-02-27T04:53:36.809Z,16.20
2019-02-27T04:54:41.251Z,13.20
2019-02-27T04:55:37.829Z,16.00
2019-02-27T04:56:36.780Z,14.50
2019-02-27T04:57:36.765Z,14.80
2019-02-27T04:58:36.753Z,13.90
2019-02-27T04:59:36.746Z,13.00
2019-02-27T05:00:36.746Z,14.10
2019-02-27T05:01:37.450Z,12.90
2019-02-27T05:02:36.707Z,15.10
2019-02-27T05:03:36.731Z,18.10
2019-02-27T05:04:36.708Z,17.10
2019-02-27T05:05:39.056Z,18.20
2019-02-27T05:06:36.666Z,16.40
2019-02-27T05:07:36.671Z,21.20
2019-02-27T05:08:36.665Z,18.50
2019-02-27T05:09:36.653Z,20.30
2019-02-27T05:10:38.114Z,19.20
2019-02-27T05:11:36.624Z,20.40
2019-02-27T05:12:36.604Z,20.50
2019-02-27T05:13:36.592Z,21.00
2019-02-27T05:14:36.576Z,19.90
2019-02-27T05:15:38.897Z,17.20
2019-02-27T05:16:36.549Z,17.30
2019-02-27T05:17:36.538Z,18.60
2019-02-27T05:18:36.542Z,20.40
2019-02-27T05:19:37.220Z,18.40
2019-02-27T05:20:36.516Z,19.50
2019-02-27T05:21:36.507Z,19.90
2019-02-27T05:22:36.509Z,20.50
2019-02-27T05:23:36.478Z,19.30
2019-02-27T05:24:40.642Z,19.30
2019-02-27T05:25:36.447Z,22.10
2019-02-27T05:26:36.446Z,21.70
2019-02-27T05:27:36.431Z,23.80
2019-02-27T05:28:36.427Z,19.20
2019-02-27T05:29:37.534Z,20.10
2019-02-27T05:30:36.401Z,22.60
2019-02-27T05:31:36.400Z,22.10
2019-02-27T05:32:36.371Z,24.80
2019-02-27T05:33:38.869Z,23.60
2019-02-27T05:34:36.352Z,21.10
2019-02-27T05:35:36.343Z,22.40
2019-02-27T05:36:36.340Z,23.70
2019-02-27T05:37:39.247Z,21.60
2019-02-27T05:38:36.320Z,23.50
2019-02-27T05:39:36.310Z,22.30
2019-02-27T05:40:36.291Z,22.40
2019-02-27T05:41:36.285Z,23.90
2019-02-27T05:42:38.604Z,24.40
2019-02-27T05:43:36.256Z,22.20
2019-02-27T05:44:36.262Z,24.60
2019-02-27T05:45:36.227Z,23.70
2019-02-27T05:46:38.503Z,24.10
2019-02-27T05:47:36.203Z,23.80
2019-02-27T05:48:36.195Z,25.10
2019-02-27T05:49:36.237Z,26.00
2019-02-27T05:50:36.178Z,22.70
2019-02-27T05:51:36.155Z,26.30
2019-02-27T05:52:36.164Z,25.70
2019-02-27T05:53:36.169Z,26.30
2019-02-27T05:54:36.130Z,25.20
2019-02-27T05:55:38.981Z,25.30
2019-02-27T05:56:36.126Z,24.70
2019-02-27T05:57:36.146Z,26.40
2019-02-27T05:58:36.125Z,24.70
2019-02-27T05:59:36.070Z,24.20
2019-02-27T06:00:36.062Z,24.80
2019-02-27T06:01:38.302Z,22.50
2019-02-27T06:02:36.058Z,21.80
2019-02-27T06:03:36.025Z,24.80
2019-02-27T06:04:36.025Z,22.00
2019-02-27T06:05:36.646Z,24.20
2019-02-27T06:06:35.993Z,21.00
2019-02-27T06:07:35.988Z,23.50
2019-02-27T06:08:38.092Z,21.10
2019-02-27T06:09:35.959Z,22.40
2019-02-27T06:10:35.943Z,20.90
2019-02-27T06:11:36.015Z,21.10
2019-02-27T06:12:39.995Z,20.90
2019-02-27T06:13:35.910Z,20.90
2019-02-27T06:14:35.902Z,19.90
2019-02-27T06:15:35.909Z,21.40
2019-02-27T06:16:37.543Z,19.80
2019-02-27T06:17:43.130Z,20.20
2019-02-27T06:18:36.851Z,20.60
2019-02-27T06:19:35.871Z,21.90
2019-02-27T06:20:35.829Z,19.20
2019-02-27T06:21:35.871Z,20.20
2019-02-27T06:22:35.829Z,22.20
2019-02-27T06:23:37.730Z,18.30
2019-02-27T06:24:35.801Z,20.60
2019-02-27T06:25:35.827Z,19.50
2019-02-27T06:26:35.802Z,21.30
2019-02-27T06:27:37.201Z,20.90
2019-02-27T06:28:36.152Z,19.70
2019-02-27T06:29:35.814Z,19.70
2019-02-27T06:30:35.733Z,22.20
2019-02-27T06:31:38.845Z,21.60
2019-02-27T06:32:35.810Z,21.30
2019-02-27T06:33:35.701Z,20.70
2019-02-27T06:34:35.673Z,20.70
2019-02-27T06:35:35.685Z,18.50
2019-02-27T06:36:35.650Z,20.70
2019-02-27T06:37:35.638Z,18.10
2019-02-27T06:38:35.641Z,21.50
2019-02-27T06:39:35.618Z,21.80
2019-02-27T06:40:35.615Z,19.20
2019-02-27T06:41:35.607Z,20.10
2019-02-27T06:42:35.612Z,22.40
2019-02-27T06:43:35.587Z,19.00
2019-02-27T06:44:36.638Z,18.60
2019-02-27T06:45:35.553Z,20.00
2019-02-27T06:46:35.544Z,18.90
2019-02-27T06:47:36.213Z,20.50
2019-02-27T06:48:35.584Z,25.50
2019-02-27T06:49:35.514Z,21.20
2019-02-27T06:50:35.518Z,18.80
2019-02-27T06:51:35.922Z,21.20
2019-02-27T06:52:35.471Z,17.00
2019-02-27T06:53:35.473Z,18.70
2019-02-27T06:54:35.470Z,17.30
2019-02-27T06:55:35.448Z,19.80
2019-02-27T06:56:35.429Z,19.30
2019-02-27T06:57:35.414Z,16.80
2019-02-27T06:58:35.418Z,18.80
2019-02-27T06:59:35.430Z,16.00
2019-02-27T07:00:36.762Z,18.00
2019-02-27T07:01:35.372Z,18.20
2019-02-27T07:02:35.374Z,18.20
2019-02-27T07:03:35.363Z,18.00
2019-02-27T07:04:36.486Z,19.30
2019-02-27T07:05:35.351Z,17.90
2019-02-27T07:06:36.879Z,15.70
2019-02-27T07:07:35.325Z,16.40
2019-02-27T07:08:37.920Z,18.40
2019-02-27T07:09:35.285Z,15.80
2019-02-27T07:10:35.282Z,16.60
2019-02-27T07:11:35.290Z,16.30
2019-02-27T07:12:35.254Z,15.80
2019-02-27T07:13:35.239Z,17.00
2019-02-27T07:14:36.502Z,16.00
2019-02-27T07:15:35.223Z,16.90
2019-02-27T07:16:35.203Z,16.90
2019-02-27T07:17:35.190Z,15.60
2019-02-27T07:18:36.495Z,16.60
2019-02-27T07:19:35.185Z,16.20
2019-02-27T07:20:35.160Z,14.30
2019-02-27T07:21:35.160Z,15.70
2019-02-27T07:22:35.135Z,16.50
2019-02-27T07:23:35.330Z,18.20
2019-02-27T07:24:35.123Z,17.70
2019-02-27T07:25:35.100Z,16.70
2019-02-27T07:26:35.097Z,17.40
2019-02-27T07:27:35.089Z,19.30
2019-02-27T07:28:35.075Z,17.90
2019-02-27T07:29:35.091Z,19.10
2019-02-27T07:30:35.086Z,15.70
2019-02-27T07:31:35.056Z,19.10
2019-02-27T07:32:35.053Z,16.40
2019-02-27T07:33:35.024Z,19.10
2019-02-27T07:34:35.023Z,16.90
2019-02-27T07:35:34.991Z,19.10
2019-02-27T07:36:35.962Z,17.90
2019-02-27T07:37:34.972Z,17.70
2019-02-27T07:38:34.963Z,16.10
2019-02-27T07:39:34.963Z,15.20
2019-02-27T07:40:34.932Z,15.50
2019-02-27T07:41:34.930Z,15.80
2019-02-27T07:42:36.310Z,16.60
2019-02-27T07:43:34.958Z,19.40
2019-02-27T07:44:35.844Z,17.30
2019-02-27T07:45:34.899Z,18.00
2019-02-27T07:46:35.572Z,18.90
2019-02-27T07:47:34.851Z,18.60
2019-02-27T07:48:34.858Z,18.90
2019-02-27T07:49:34.850Z,16.80
2019-02-27T07:50:34.826Z,18.00
2019-02-27T07:51:34.819Z,16.60
2019-02-27T07:52:34.813Z,17.00
2019-02-27T07:53:34.789Z,16.20
2019-02-27T07:54:34.800Z,20.30
2019-02-27T07:55:34.823Z,18.60
2019-02-27T07:56:34.759Z,27.00
2019-02-27T07:57:34.756Z,17.10
2019-02-27T07:58:34.780Z,18.60
2019-02-27T07:59:37.959Z,16.20
2019-02-27T08:00:34.761Z,18.00
2019-02-27T08:01:43.500Z,18.80
2019-02-27T08:02:36.225Z,19.70
2019-02-27T08:03:34.693Z,15.50
2019-02-27T08:04:34.664Z,17.80
2019-02-27T08:05:34.665Z,18.70
2019-02-27T08:06:37.368Z,17.60
2019-02-27T08:07:34.635Z,17.30
2019-02-27T08:08:34.638Z,18.00
2019-02-27T08:09:34.644Z,18.30
2019-02-27T08:10:36.862Z,20.10
2019-02-27T08:11:34.586Z,18.50
2019-02-27T08:12:34.584Z,18.90
2019-02-27T08:13:34.593Z,20.50
2019-02-27T08:14:36.755Z,20.20
2019-02-27T08:15:34.596Z,20.20
2019-02-27T08:16:36.943Z,16.70
2019-02-27T08:17:34.519Z,20.10
2019-02-27T08:18:37.720Z,17.30
2019-02-27T08:19:34.508Z,17.50
2019-02-27T08:20:34.511Z,21.30
2019-02-27T08:21:34.489Z,18.60
2019-02-27T08:22:34.467Z,18.10
2019-02-27T08:23:34.495Z,17.10
2019-02-27T08:24:34.444Z,16.80
2019-02-27T08:25:34.711Z,19.80
2019-02-27T08:26:36.450Z,16.70
2019-02-27T08:27:34.410Z,18.90
2019-02-27T08:28:34.395Z,17.50
2019-02-27T08:29:34.394Z,16.70
2019-02-27T08:30:34.401Z,16.80
2019-02-27T08:31:34.410Z,18.30
2019-02-27T08:32:34.624Z,16.20
2019-02-27T08:33:34.358Z,17.50
2019-02-27T08:34:34.327Z,17.60
2019-02-27T08:35:34.370Z,17.10
2019-02-27T08:36:34.306Z,16.70
2019-02-27T08:37:34.312Z,15.10
2019-02-27T08:38:34.286Z,17.80
2019-02-27T08:39:34.274Z,14.80
2019-02-27T08:40:34.280Z,16.00
2019-02-27T08:41:34.255Z,16.10
2019-02-27T08:42:36.848Z,16.80
2019-02-27T08:43:34.291Z,18.30
2019-02-27T08:44:34.220Z,17.40
2019-02-27T08:45:34.220Z,22.90
2019-02-27T08:46:36.995Z,18.00
2019-02-27T08:47:34.182Z,15.80
2019-02-27T08:48:34.174Z,18.30
2019-02-27T08:49:34.160Z,17.90
2019-02-27T08:50:34.170Z,18.60
2019-02-27T08:51:34.139Z,18.70
2019-02-27T08:52:34.133Z,18.00
2019-02-27T08:53:34.569Z,16.90
2019-02-27T08:54:34.106Z,19.70
2019-02-27T08:55:34.123Z,19.80
2019-02-27T08:56:34.079Z,19.50
2019-02-27T08:57:34.165Z,19.80
2019-02-27T08:58:34.057Z,15.40
2019-02-27T08:59:34.059Z,16.40
2019-02-27T09:00:34.058Z,16.00
2019-02-27T09:01:34.032Z,19.20
2019-02-27T09:02:34.012Z,19.70
2019-02-27T09:03:36.360Z,17.70
2019-02-27T09:04:33.992Z,16.90
2019-02-27T09:05:33.992Z,21.90
2019-02-27T09:06:34.008Z,20.90
2019-02-27T09:07:36.484Z,19.70
2019-02-27T09:08:33.946Z,18.20
2019-02-27T09:09:36.127Z,20.50
2019-02-27T09:10:33.929Z,19.10
2019-02-27T09:11:33.936Z,18.50
2019-02-27T09:12:33.914Z,17.90
2019-02-27T09:13:33.894Z,23.90
2019-02-27T09:14:33.888Z,19.70
2019-02-27T09:15:33.865Z,19.50
2019-02-27T09:16:33.867Z,16.50
2019-02-27T09:17:33.850Z,21.20
2019-02-27T09:18:36.481Z,21.70
2019-02-27T09:19:33.821Z,19.90
2019-02-27T09:20:33.810Z,19.30
2019-02-27T09:21:33.807Z,20.10
2019-02-27T09:22:36.552Z,19.00
2019-02-27T09:23:33.778Z,20.00
2019-02-27T09:24:33.784Z,21.10
2019-02-27T09:25:33.753Z,19.30
2019-02-27T09:26:35.833Z,19.60
2019-02-27T09:27:35.312Z,20.90
2019-02-27T09:28:33.719Z,20.00
2019-02-27T09:29:33.723Z,19.40
2019-02-27T09:30:33.712Z,22.10
2019-02-27T09:31:34.733Z,18.80
2019-02-27T09:32:33.671Z,19.90
2019-02-27T09:33:38.931Z,20.60
2019-02-27T09:34:34.684Z,17.60
2019-02-27T09:35:38.324Z,20.50
2019-02-27T09:36:34.638Z,21.40
2019-02-27T09:37:34.605Z,21.70
2019-02-27T09:38:33.606Z,20.60
2019-02-27T09:39:35.112Z,19.00
2019-02-27T09:40:38.543Z,20.60
2019-02-27T09:41:34.581Z,21.70
2019-02-27T09:42:33.559Z,21.90
2019-02-27T09:43:33.562Z,19.70
2019-02-27T09:44:36.351Z,22.70
2019-02-27T09:45:34.874Z,19.30
2019-02-27T09:46:33.543Z,20.90
2019-02-27T09:47:33.507Z,21.40
2019-02-27T09:48:34.080Z,20.90
2019-02-27T09:49:33.483Z,21.20
2019-02-27T09:50:33.471Z,20.00
2019-02-27T09:51:33.484Z,18.50
2019-02-27T09:52:33.448Z,19.80
2019-02-27T09:53:33.935Z,20.90
2019-02-27T09:54:34.038Z,18.20
2019-02-27T09:55:33.411Z,21.80
2019-02-27T09:56:33.402Z,22.50
2019-02-27T09:57:35.338Z,19.90
2019-02-27T09:58:33.388Z,19.90
2019-02-27T09:59:33.365Z,21.80
2019-02-27T10:00:33.479Z,24.50
2019-02-27T10:01:35.149Z,18.60
2019-02-27T10:02:33.654Z,22.10
2019-02-27T10:03:33.380Z,20.00
2019-02-27T10:04:33.316Z,22.30
2019-02-27T10:05:36.256Z,24.20
2019-02-27T10:06:33.310Z,20.00
2019-02-27T10:07:33.287Z,21.70
2019-02-27T10:08:33.286Z,20.20
2019-02-27T10:09:34.875Z,21.70
2019-02-27T10:10:33.281Z,20.40
2019-02-27T10:11:33.229Z,21.30
2019-02-27T10:12:33.246Z,20.10
2019-02-27T10:13:35.447Z,23.30
2019-02-27T10:14:33.205Z,22.10
2019-02-27T10:15:34.471Z,21.50
2019-02-27T10:16:34.861Z,20.40
2019-02-27T10:17:33.174Z,20.80
2019-02-27T10:18:33.154Z,19.40
2019-02-27T10:19:33.140Z,20.70
2019-02-27T10:20:36.696Z,19.70
2019-02-27T10:21:33.138Z,19.80
2019-02-27T10:22:33.142Z,20.40
2019-02-27T10:23:33.097Z,20.00
2019-02-27T10:24:33.089Z,21.20
2019-02-27T10:25:33.073Z,20.00
2019-02-27T10:26:33.076Z,20.70
2019-02-27T10:27:33.077Z,20.60
2019-02-27T10:28:35.641Z,21.60
2019-02-27T10:29:34.027Z,20.10
2019-02-27T10:30:33.016Z,21.20
2019-02-27T10:31:33.007Z,21.60
2019-02-27T10:32:36.457Z,21.10
2019-02-27T10:33:33.011Z,20.80
2019-02-27T10:34:32.973Z,22.00
2019-02-27T10:35:34.706Z,22.30
2019-02-27T10:36:32.947Z,23.40
2019-02-27T10:37:32.971Z,20.90
2019-02-27T10:38:32.940Z,21.80
2019-02-27T10:39:36.894Z,20.60
2019-02-27T10:40:32.911Z,23.30
2019-02-27T10:41:32.897Z,23.30
2019-02-27T10:42:32.879Z,27.40
2019-02-27T10:43:32.934Z,23.90
2019-02-27T10:44:33.929Z,22.00
2019-02-27T10:45:32.874Z,22.00
2019-02-27T10:46:32.834Z,21.60
2019-02-27T10:47:33.667Z,22.80
2019-02-27T10:48:32.839Z,26.00
2019-02-27T10:49:32.844Z,22.20
2019-02-27T10:50:35.389Z,22.00
2019-02-27T10:51:32.785Z,24.10
2019-02-27T10:52:32.792Z,26.00
2019-02-27T10:53:32.799Z,24.80
2019-02-27T10:54:32.758Z,23.40
2019-02-27T10:55:32.756Z,23.20
2019-02-27T10:56:32.777Z,21.10
2019-02-27T10:57:38.177Z,23.70
2019-02-27T10:58:33.707Z,22.90
2019-02-27T10:59:32.692Z,22.40
2019-02-27T11:00:32.681Z,20.90
2019-02-27T11:01:33.204Z,23.30
2019-02-27T11:02:32.660Z,23.00
2019-02-27T11:03:32.654Z,21.00
2019-02-27T11:04:32.635Z,20.10
2019-02-27T11:05:32.619Z,25.20
2019-02-27T11:06:34.207Z,20.40
2019-02-27T11:07:32.605Z,21.90
2019-02-27T11:08:32.611Z,21.20
2019-02-27T11:09:32.588Z,21.40
2019-02-27T11:10:32.566Z,22.20
2019-02-27T11:11:32.563Z,21.90
2019-02-27T11:12:32.543Z,21.00
2019-02-27T11:13:32.542Z,22.60
2019-02-27T11:14:32.782Z,23.40
2019-02-27T11:15:32.521Z,21.50
2019-02-27T11:16:32.531Z,23.10
2019-02-27T11:17:32.499Z,24.10
2019-02-27T11:18:32.483Z,24.40
2019-02-27T11:19:34.605Z,26.00
2019-02-27T11:20:32.492Z,22.90
2019-02-27T11:21:32.458Z,20.60
2019-02-27T11:22:32.432Z,22.20
2019-02-27T11:23:32.423Z,23.10
2019-02-27T11:24:32.428Z,22.60
2019-02-27T11:25:32.401Z,24.00
2019-02-27T11:26:33.341Z,22.30
2019-02-27T11:27:32.377Z,22.80
2019-02-27T11:28:32.370Z,22.40
2019-02-27T11:29:32.402Z,23.20
2019-02-27T11:30:35.987Z,23.30
2019-02-27T11:31:32.326Z,23.90
2019-02-27T11:32:32.331Z,23.40
2019-02-27T11:33:33.466Z,21.90
2019-02-27T11:34:32.305Z,24.60
2019-02-27T11:35:32.282Z,24.50
2019-02-27T11:36:32.268Z,23.40
2019-02-27T11:37:32.285Z,21.50
2019-02-27T11:38:32.267Z,25.90
2019-02-27T11:39:32.903Z,23.00
2019-02-27T11:40:32.231Z,24.80
2019-02-27T11:41:32.348Z,21.80
2019-02-27T11:42:32.743Z,23.30
2019-02-27T11:43:32.204Z,24.30
2019-02-27T11:44:32.215Z,24.00
2019-02-27T11:45:32.168Z,23.80
2019-02-27T11:46:32.158Z,27.70
2019-02-27T11:47:32.151Z,24.80
2019-02-27T11:48:32.134Z,24.20
2019-02-27T11:49:32.146Z,24.30
2019-02-27T11:50:32.122Z,22.80
2019-02-27T11:51:32.119Z,23.10
2019-02-27T11:52:32.094Z,23.10
2019-02-27T11:53:35.647Z,22.60
2019-02-27T11:54:32.078Z,23.50
2019-02-27T11:55:32.067Z,22.90
2019-02-27T11:56:32.058Z,24.30
2019-02-27T11:57:32.037Z,24.60
2019-02-27T11:58:32.047Z,24.80
2019-02-27T11:59:32.010Z,24.10
2019-02-27T12:00:32.007Z,24.40
2019-02-27T12:01:32.222Z,25.50
2019-02-27T12:02:36.890Z,22.50
2019-02-27T12:03:32.963Z,24.20
2019-02-27T12:04:31.993Z,24.70
2019-02-27T12:05:34.307Z,23.00
2019-02-27T12:06:31.939Z,25.00
2019-02-27T12:07:31.928Z,23.20
2019-02-27T12:08:31.909Z,21.70
2019-02-27T12:09:34.978Z,22.70
2019-02-27T12:10:31.904Z,24.40
2019-02-27T12:11:31.878Z,24.80
2019-02-27T12:12:31.864Z,22.90
2019-02-27T12:13:32.342Z,24.80
2019-02-27T12:14:31.841Z,24.00
2019-02-27T12:15:31.864Z,22.90
2019-02-27T12:16:33.354Z,22.70
2019-02-27T12:17:31.866Z,22.60
2019-02-27T12:18:32.171Z,23.70
2019-02-27T12:19:31.788Z,25.30
2019-02-27T12:20:31.797Z,23.30
2019-02-27T12:21:31.798Z,23.80
2019-02-27T12:22:32.952Z,26.40
2019-02-27T12:23:31.739Z,22.90
2019-02-27T12:24:31.729Z,23.30
2019-02-27T12:25:32.402Z,22.80
2019-02-27T12:26:34.435Z,23.60
2019-02-27T12:27:48.767Z,21.50
2019-02-27T12:28:32.690Z,24.80
2019-02-27T12:29:31.683Z,23.50
2019-02-27T12:30:31.668Z,22.30
2019-02-27T12:31:31.672Z,23.20
2019-02-27T12:32:31.651Z,23.80
2019-02-27T12:33:31.675Z,23.30
2019-02-27T12:34:34.029Z,22.10
2019-02-27T12:35:32.612Z,23.30
2019-02-27T12:36:31.626Z,24.20
2019-02-27T12:37:34.745Z,23.90
2019-02-27T12:38:31.576Z,23.30
2019-02-27T12:39:31.566Z,25.30
2019-02-27T12:40:31.548Z,23.10
2019-02-27T12:41:32.512Z,24.50
2019-02-27T12:42:37.078Z,26.50
2019-02-27T12:43:32.549Z,25.20
2019-02-27T12:44:31.513Z,23.70
2019-02-27T12:45:31.550Z,23.40
2019-02-27T12:46:31.858Z,22.80
2019-02-27T12:47:31.471Z,22.50
2019-02-27T12:48:31.461Z,25.70
2019-02-27T12:49:31.455Z,23.90
2019-02-27T12:50:31.702Z,25.70
2019-02-27T12:51:31.755Z,23.00
2019-02-27T12:52:31.415Z,24.80